Time;durP1;ratioP1;P1;durP2;ratioP2;P2;SDS_P1;SDS_P2;PMS_P1;PMS_P2;Temp;Humidity;BMP_temperature;BMP_pressure;BME280_temperature;BME280_humidity;BME280_pressure;Samples;Min_cycle;Max_cycle;Signal;HPM_P1;HPM_P2
2021/12/06 00:02:22;;;;;;;;;;;;;;;1.22;87.80;95682.75;5004818;28;19961;-80
2021/12/06 00:04:48;;;;;;;;;;;;;;;1.22;87.76;95690.50;5005944;28;19960;-80
2021/12/06 00:07:21;;;;;;;;;;;;;;;1.23;87.58;95693.88;4988349;28;19962;-80
2021/12/06 00:09:47;;;;;;;;;;;;;;;1.22;87.67;95695.66;5008272;28;19967;-80
2021/12/06 00:12:14;;;;;;;;;;;;;;;1.22;87.55;95693.09;5022665;28;20370;-80
2021/12/06 00:14:41;;;;;;;;;;;;;;;1.23;87.65;95699.03;5008175;28;20428;-80
2021/12/06 00:17:08;;;;;;;;;;;;;;;1.23;87.69;95699.03;4992671;28;19967;-80
2021/12/06 00:19:34;;;;;;;;;;;;;;;1.21;87.50;95689.69;5011527;28;19962;-80
2021/12/06 00:22:03;;;;;;;;;;;;;;;1.21;87.52;95694.84;4987896;28;20006;-80
2021/12/06 00:24:29;;;;;;;;;;;;;;;1.20;87.43;95700.22;5008670;28;20361;-80
2021/12/06 00:26:55;;;;;;;;;;;;;;;1.19;87.71;95701.97;4980211;28;19964;-80
2021/12/06 00:29:21;;;;;;;;;;;;;;;1.20;87.61;95705.38;4982881;28;20415;-80
2021/12/06 00:31:47;;;;;;;;;;;;;;;1.18;87.49;95708.13;5010842;28;19954;-79
2021/12/06 00:34:16;;;;;;;;;;;;;;;1.19;87.72;95720.03;5028304;28;19954;-80
2021/12/06 00:36:53;;;;;;;;;;;;;;;1.19;87.59;95711.50;5031723;28;19965;-80
2021/12/06 00:39:20;;;;;;;;;;;;;;;1.18;87.41;95725.41;5002812;28;19956;-80
2021/12/06 00:41:47;;;;;;;;;;;;;;;1.18;87.58;95717.66;5000674;28;19975;-80
2021/12/06 00:44:13;;;;;;;;;;;;;;;1.19;87.58;95724.41;4991452;28;19953;-79
2021/12/06 00:46:39;;;;;;;;;;;;;;;1.17;87.65;95716.84;5029611;28;19957;-80
2021/12/06 00:49:09;;;;;;;;;;;;;;;1.19;87.53;95729.56;5029310;28;19952;-80
2021/12/06 00:51:36;;;;;;;;;;;;;;;1.18;87.61;95728.00;5010892;28;19960;-80
2021/12/06 00:54:02;;;;;;;;;;;;;;;1.17;87.58;95726.38;5022822;28;19950;-80
2021/12/06 00:56:28;;;;;;;;;;;;;;;1.17;87.50;95727.16;5015805;28;19948;-80
2021/12/06 00:58:54;;;;;;;;;;;;;;;1.16;87.68;95724.78;4986126;28;20056;-80
2021/12/06 01:01:20;;;;;;;;;;;;;;;1.16;87.64;95728.16;5012646;28;19950;-80
2021/12/06 01:03:46;;;;;;;;;;;;;;;1.16;87.59;95732.53;5008420;28;19954;-79
2021/12/06 01:06:15;;;;;;;;;;;;;;;1.15;87.63;95739.44;5006869;28;19991;-80
2021/12/06 01:08:41;;;;;;;;;;;;;;;1.14;87.63;95737.06;5011010;28;19964;-80
2021/12/06 01:11:08;;;;;;;;;;;;;;;1.14;87.85;95740.44;5032764;28;19966;-80
2021/12/06 01:13:34;;;;;;;;;;;;;;;1.13;87.74;95753.53;5028082;28;19948;-80
2021/12/06 01:16:00;;;;;;;;;;;;;;;1.14;87.74;95755.94;5012004;28;19953;-80
2021/12/06 01:18:26;;;;;;;;;;;;;;;1.13;87.66;95759.47;5000197;28;20451;-80
2021/12/06 01:21:00;;;;;;;;;;;;;;;1.15;87.71;95765.28;5008989;28;19994;-80
2021/12/06 01:23:32;;;;;;;;;;;;;;;1.17;87.55;95763.31;5018454;28;19947;-80
2021/12/06 01:29:00;;;;;;;;;;;;;;;1.17;87.71;95776.22;4994450;28;19965;-80
2021/12/06 01:34:11;;;;;;;;;;;;;;;1.17;87.78;95789.13;5009579;28;19960;-80
2021/12/06 01:39:25;;;;;;;;;;;;;;;1.17;87.70;95794.31;5023188;28;19964;-80
2021/12/06 01:42:10;;;;;;;;;;;;;;;1.16;87.65;95791.91;5011563;28;20329;-80
2021/12/06 01:44:38;;;;;;;;;;;;;;;1.16;87.64;95791.91;5026417;28;19961;-79
2021/12/06 01:47:09;;;;;;;;;;;;;;;1.15;87.78;95793.69;5014444;28;19957;-80
2021/12/06 01:49:40;;;;;;;;;;;;;;;1.14;87.71;95791.28;5012047;28;19957;-80
2021/12/06 01:52:26;;;;;;;;;;;;;;;1.15;87.53;95795.47;4993510;28;19977;-80
2021/12/06 01:54:53;;;;;;;;;;;;;;;1.13;87.43;95795.63;5032352;28;19953;-80
2021/12/06 01:57:19;;;;;;;;;;;;;;;1.12;87.52;95791.47;5010578;28;19964;-80
2021/12/06 01:59:45;;;;;;;;;;;;;;;1.13;87.35;95794.84;5007296;28;20319;-80
2021/12/06 02:02:11;;;;;;;;;;;;;;;1.11;87.44;95802.75;5029892;28;19946;-80
2021/12/06 02:04:38;;;;;;;;;;;;;;;1.12;87.42;95806.16;5008588;28;19957;-80
2021/12/06 02:07:06;;;;;;;;;;;;;;;1.12;87.50;95801.78;5005474;28;20391;-80
2021/12/06 02:09:32;;;;;;;;;;;;;;;1.11;87.52;95807.91;5005523;28;20338;-80
2021/12/06 02:12:03;;;;;;;;;;;;;;;1.11;87.42;95813.09;5011562;28;19960;-80
2021/12/06 02:17:19;;;;;;;;;;;;;;;1.11;87.67;95817.44;5006847;28;19958;-80
2021/12/06 02:19:48;;;;;;;;;;;;;;;1.09;87.60;95822.81;5016749;28;20318;-80
2021/12/06 02:22:20;;;;;;;;;;;;;;;1.10;87.89;95828.75;5006456;28;19950;-80
2021/12/06 02:24:46;;;;;;;;;;;;;;;1.10;87.84;95828.75;5023343;28;19958;-80
2021/12/06 02:27:12;;;;;;;;;;;;;;;1.09;87.53;95814.25;5025945;28;19952;-79
2021/12/06 02:29:39;;;;;;;;;;;;;;;1.07;87.61;95826.50;5004461;28;19960;-80
2021/12/06 02:32:10;;;;;;;;;;;;;;;1.05;87.66;95834.47;5006817;28;19958;-80
2021/12/06 02:34:40;;;;;;;;;;;;;;;1.02;87.84;95834.78;5030442;28;20336;-80
2021/12/06 02:37:08;;;;;;;;;;;;;;;1.02;87.88;95840.75;5013122;28;19950;-80
2021/12/06 02:39:35;;;;;;;;;;;;;;;1.02;87.86;95842.53;5013512;28;19970;-80
2021/12/06 02:42:01;;;;;;;;;;;;;;;1.03;88.04;95836.41;5024178;28;19957;-80
2021/12/06 02:44:28;;;;;;;;;;;;;;;1.03;88.00;95841.56;5032523;28;19955;-80
2021/12/06 02:46:53;;;;;;;;;;;;;;;1.04;88.11;95848.31;4992525;28;19956;-80
2021/12/06 02:49:19;;;;;;;;;;;;;;;1.04;87.94;95843.16;5029338;28;20005;-79
2021/12/06 02:51:50;;;;;;;;;;;;;;;1.02;87.94;95840.75;5009459;28;19961;-80
2021/12/06 02:54:19;;;;;;;;;;;;;;;1.01;88.05;95836.56;5013430;28;20442;-80
2021/12/06 02:57:07;;;;;;;;;;;;;;;1.01;88.00;95836.56;4974801;28;19965;-80
2021/12/06 02:59:34;;;;;;;;;;;;;;;1.01;88.00;95839.16;5009944;28;19962;-80
2021/12/06 03:02:03;;;;;;;;;;;;;;;1.01;88.11;95840.94;5011128;28;19949;-80
2021/12/06 03:04:29;;;;;;;;;;;;;;;1.00;88.00;95847.06;5003403;28;19956;-80
2021/12/06 03:06:56;;;;;;;;;;;;;;;1.01;88.13;95846.09;5034056;28;20434;-80
2021/12/06 03:09:23;;;;;;;;;;;;;;;1.02;88.31;95847.69;5028435;28;20395;-80
2021/12/06 03:11:55;;;;;;;;;;;;;;;1.03;88.04;95849.31;5028287;28;19954;-80
2021/12/06 03:14:23;;;;;;;;;;;;;;;1.04;87.85;95847.53;4992781;28;19950;-80
2021/12/06 03:16:49;;;;;;;;;;;;;;;1.04;87.89;95853.50;4986490;28;19951;-80
2021/12/06 03:19:15;;;;;;;;;;;;;;;1.05;87.83;95854.28;4995546;28;19966;-80
2021/12/06 03:21:41;;;;;;;;;;;;;;;1.05;87.89;95851.72;5006317;28;19953;-80
2021/12/06 03:24:07;;;;;;;;;;;;;;;1.06;87.94;95858.50;5033765;28;19954;-80
2021/12/06 03:26:34;;;;;;;;;;;;;;;1.04;87.90;95855.28;5003006;28;19965;-80
2021/12/06 03:29:00;;;;;;;;;;;;;;;1.02;88.02;95863.19;5028296;28;19977;-80
2021/12/06 03:31:26;;;;;;;;;;;;;;;1.01;88.01;95867.56;5016259;28;19947;-80
2021/12/06 03:33:53;;;;;;;;;;;;;;;1.02;88.00;95878.69;5032765;28;20436;-80
2021/12/06 03:36:20;;;;;;;;;;;;;;;1.02;88.00;95881.25;5001748;28;20355;-80
2021/12/06 03:38:47;;;;;;;;;;;;;;;1.00;88.08;95875.47;5010678;28;19981;-80
2021/12/06 03:41:14;;;;;;;;;;;;;;;0.99;88.01;95874.66;5023321;28;20324;-80
2021/12/06 03:43:40;;;;;;;;;;;;;;;1.00;87.72;95886.59;5014141;28;19954;-80
2021/12/06 03:46:06;;;;;;;;;;;;;;;1.01;87.89;95890.78;5012951;28;19956;-80
2021/12/06 03:48:33;;;;;;;;;;;;;;;1.02;87.91;95887.22;5003978;28;19968;-80
2021/12/06 03:51:00;;;;;;;;;;;;;;;1.02;87.85;95889.81;5007118;28;19972;-80
2021/12/06 03:53:27;;;;;;;;;;;;;;;1.04;88.10;95892.22;5016645;28;19952;-80
2021/12/06 03:55:53;;;;;;;;;;;;;;;1.05;87.83;95895.59;4999657;28;20395;-80
2021/12/06 03:58:19;;;;;;;;;;;;;;;1.05;87.96;95899.00;4996422;28;19969;-80
2021/12/06 04:00:46;;;;;;;;;;;;;;;1.04;87.93;95897.38;4996015;28;19976;-80
2021/12/06 04:03:12;;;;;;;;;;;;;;;1.02;87.86;95894.97;5001682;28;19950;-80
2021/12/06 04:05:38;;;;;;;;;;;;;;;1.02;87.93;95896.75;4999661;28;19955;-80
2021/12/06 04:08:04;;;;;;;;;;;;;;;0.99;87.87;95905.66;5033473;28;19978;-80
2021/12/06 04:10:30;;;;;;;;;;;;;;;1.01;88.03;95915.81;5024870;28;19951;-80
2021/12/06 04:12:58;;;;;;;;;;;;;;;0.99;88.08;95913.41;5021864;28;20332;-80
2021/12/06 04:15:25;;;;;;;;;;;;;;;0.98;88.01;95923.88;5012606;28;19954;-81
2021/12/06 04:17:51;;;;;;;;;;;;;;;0.98;88.25;95916.13;5028915;28;19970;-80
2021/12/06 04:20:17;;;;;;;;;;;;;;;0.99;88.20;95915.19;5004795;28;19963;-80
2021/12/06 04:22:43;;;;;;;;;;;;;;;0.98;88.24;95919.53;5005042;28;20419;-80
2021/12/06 04:25:14;;;;;;;;;;;;;;;0.98;88.32;95929.84;5000890;28;19955;-80
2021/12/06 04:27:40;;;;;;;;;;;;;;;0.98;88.41;95929.06;5012547;28;20333;-80
2021/12/06 04:30:07;;;;;;;;;;;;;;;0.99;88.23;95933.25;5016450;28;20413;-80
2021/12/06 04:32:33;;;;;;;;;;;;;;;0.97;88.50;95930.84;4987138;28;19963;-80
2021/12/06 04:34:59;;;;;;;;;;;;;;;0.96;88.27;95931.78;5019871;28;20027;-80
2021/12/06 04:37:25;;;;;;;;;;;;;;;0.97;88.50;95938.56;5009722;28;19957;-80
2021/12/06 04:39:51;;;;;;;;;;;;;;;0.98;88.72;95941.97;4977236;28;19977;-80
2021/12/06 04:42:19;;;;;;;;;;;;;;;1.00;88.72;95945.16;4996909;28;19953;-80
2021/12/06 04:44:45;;;;;;;;;;;;;;;0.99;88.70;95949.53;5008107;28;19973;-80
2021/12/06 04:47:11;;;;;;;;;;;;;;;0.99;88.71;95944.38;5021338;28;20356;-80
2021/12/06 04:49:37;;;;;;;;;;;;;;;1.03;88.52;95950.00;5012709;28;19961;-80
2021/12/06 04:52:05;;;;;;;;;;;;;;;1.03;88.61;95955.19;5008450;28;19960;-80
2021/12/06 04:54:33;;;;;;;;;;;;;;;1.06;88.53;95965.16;5025110;28;19958;-80
2021/12/06 04:57:05;;;;;;;;;;;;;;;1.06;88.75;95962.56;5024245;28;20420;-80
2021/12/06 04:59:36;;;;;;;;;;;;;;;1.08;88.85;95968.38;5025750;28;19964;-80
2021/12/06 05:02:06;;;;;;;;;;;;;;;1.07;88.47;95979.69;5001226;28;19978;-80
2021/12/06 05:04:34;;;;;;;;;;;;;;;0.98;88.48;95980.69;5026325;28;19972;-80
2021/12/06 05:07:05;;;;;;;;;;;;;;;0.94;88.69;95980.22;5030803;28;19987;-80
2021/12/06 05:09:33;;;;;;;;;;;;;;;0.93;88.80;95986.34;5030021;28;19956;-80
2021/12/06 05:12:00;;;;;;;;;;;;;;;0.95;89.10;95996.53;5027675;28;19954;-80
2021/12/06 05:14:27;;;;;;;;;;;;;;;0.98;89.43;95998.75;5004881;28;19970;-80
2021/12/06 05:16:54;;;;;;;;;;;;;;;1.01;89.37;96001.00;5015508;28;19956;-80
2021/12/06 05:19:20;;;;;;;;;;;;;;;1.03;89.47;96004.22;5018347;28;19993;-80
2021/12/06 05:21:46;;;;;;;;;;;;;;;1.05;89.05;96011.78;5010420;28;19951;-80
2021/12/06 05:24:14;;;;;;;;;;;;;;;1.05;89.15;96012.63;4991136;28;20384;-80
2021/12/06 05:26:40;;;;;;;;;;;;;;;1.06;88.52;96019.38;5018396;28;19944;-80
2021/12/06 05:29:07;;;;;;;;;;;;;;;1.06;88.70;96023.75;5001964;28;20019;-80
2021/12/06 05:31:38;;;;;;;;;;;;;;;1.06;88.74;96019.38;5036032;28;19984;-80
2021/12/06 05:34:09;;;;;;;;;;;;;;;1.06;89.00;96031.50;5034110;28;19956;-80
2021/12/06 05:36:35;;;;;;;;;;;;;;;1.08;88.93;96030.34;4992704;28;19959;-80
2021/12/06 05:39:03;;;;;;;;;;;;;;;1.10;89.11;96035.34;5012269;28;19971;-80
2021/12/06 05:41:29;;;;;;;;;;;;;;;1.10;89.17;96043.88;4998421;28;19954;-80
2021/12/06 05:43:55;;;;;;;;;;;;;;;1.11;89.21;96035.16;5002404;28;19965;-80
2021/12/06 05:46:21;;;;;;;;;;;;;;;1.12;89.21;96039.38;4999186;28;19955;-79
2021/12/06 05:48:46;;;;;;;;;;;;;;;1.14;89.41;96046.94;5006462;28;19966;-80
2021/12/06 05:51:12;;;;;;;;;;;;;;;1.14;89.56;96042.59;5034043;28;19960;-80
2021/12/06 05:53:38;;;;;;;;;;;;;;;1.17;89.69;96038.84;5009212;28;20039;-80
2021/12/06 05:56:04;;;;;;;;;;;;;;;1.17;89.32;96051.75;5013722;28;20045;-80
2021/12/06 05:58:32;;;;;;;;;;;;;;;1.19;89.29;96049.81;5027022;28;19972;-79
2021/12/06 06:00:58;;;;;;;;;;;;;;;1.10;89.00;96053.44;5012200;28;19951;-80
2021/12/06 06:03:24;;;;;;;;;;;;;;;1.05;89.03;96059.09;5024950;28;19953;-80
2021/12/06 06:05:52;;;;;;;;;;;;;;;1.05;89.07;96064.25;5006855;28;19956;-80
2021/12/06 06:08:20;;;;;;;;;;;;;;;1.07;89.12;96071.81;5017337;28;19988;-80
2021/12/06 06:10:47;;;;;;;;;;;;;;;1.08;88.93;96071.66;5017070;28;20321;-80
2021/12/06 06:13:13;;;;;;;;;;;;;;;1.06;88.80;96075.38;4990237;28;19961;-80
2021/12/06 06:15:39;;;;;;;;;;;;;;;1.05;88.81;96079.75;5023002;28;20330;-80
2021/12/06 06:18:06;;;;;;;;;;;;;;;1.05;88.65;96079.75;4994290;28;20434;-80
2021/12/06 06:20:44;;;;;;;;;;;;;;;1.06;88.81;96089.09;5023758;28;19956;-80
2021/12/06 06:23:10;;;;;;;;;;;;;;;1.08;88.86;96094.09;5004819;28;19951;-80
2021/12/06 06:25:38;;;;;;;;;;;;;;;1.07;88.67;96089.91;5003389;28;20032;-80
2021/12/06 06:28:04;;;;;;;;;;;;;;;1.07;88.70;96095.06;5026199;28;19955;-80
2021/12/06 06:30:30;;;;;;;;;;;;;;;1.07;89.02;96105.38;4987669;28;19968;-80
2021/12/06 06:32:56;;;;;;;;;;;;;;;1.09;89.21;96109.44;4990596;28;19954;-80
2021/12/06 06:35:23;;;;;;;;;;;;;;;1.10;89.15;96100.69;5034040;28;19969;-80
2021/12/06 06:37:52;;;;;;;;;;;;;;;1.13;89.19;96107.31;4988373;28;19963;-80
2021/12/06 06:40:18;;;;;;;;;;;;;;;1.15;88.93;96110.53;5011373;28;19969;-80
2021/12/06 06:42:44;;;;;;;;;;;;;;;1.17;89.07;96117.13;5011992;28;19961;-80
2021/12/06 06:45:15;;;;;;;;;;;;;;;1.18;88.98;96126.50;4997286;28;19962;-81
2021/12/06 06:47:45;;;;;;;;;;;;;;;1.19;88.96;96130.69;5005543;28;19957;-80
2021/12/06 06:50:11;;;;;;;;;;;;;;;1.22;89.16;96139.91;5010688;28;19956;-81
2021/12/06 06:52:37;;;;;;;;;;;;;;;1.23;89.15;96138.91;5021933;28;19952;-80
2021/12/06 06:55:05;;;;;;;;;;;;;;;1.25;89.06;96142.13;5027653;28;19960;-81
2021/12/06 06:57:31;;;;;;;;;;;;;;;1.25;89.32;96141.34;5016377;28;19960;-80
2021/12/06 06:59:57;;;;;;;;;;;;;;;1.27;89.20;96145.34;5010002;28;19974;-80
2021/12/06 07:02:23;;;;;;;;;;;;;;;1.29;89.51;96152.94;5006024;28;19952;-80
2021/12/06 07:04:49;;;;;;;;;;;;;;;1.28;89.63;96156.50;5028573;28;20503;-80
2021/12/06 07:07:15;;;;;;;;;;;;;;;1.30;89.86;96155.38;4992509;28;19983;-80
2021/12/06 07:09:43;;;;;;;;;;;;;;;1.30;89.96;96160.53;4977446;28;19972;-81
2021/12/06 07:12:15;;;;;;;;;;;;;;;1.31;90.07;96162.13;4966299;28;20421;-80
2021/12/06 07:14:41;;;;;;;;;;;;;;;1.35;90.19;96162.63;4987544;28;20330;-80
2021/12/06 07:17:07;;;;;;;;;;;;;;;1.36;89.91;96164.22;4990579;28;19961;-81
2021/12/06 07:19:32;;;;;;;;;;;;;;;1.37;90.12;96166.63;5001702;28;19978;-81
2021/12/06 07:21:58;;;;;;;;;;;;;;;1.39;90.02;96180.19;4968262;28;19956;-81
2021/12/06 07:24:25;;;;;;;;;;;;;;;1.40;89.85;96171.47;4997787;28;20331;-81
2021/12/06 07:26:51;;;;;;;;;;;;;;;1.42;89.83;96181.63;4951605;28;19974;-81
2021/12/06 07:29:17;;;;;;;;;;;;;;;1.45;89.99;96181.31;4983810;28;20021;-81
2021/12/06 07:31:42;;;;;;;;;;;;;;;1.47;89.99;96188.88;4985947;28;19961;-81
2021/12/06 07:34:08;;;;;;;;;;;;;;;1.48;89.65;96190.50;4994986;28;19958;-81
2021/12/06 07:36:34;;;;;;;;;;;;;;;1.49;89.67;96189.53;4986311;28;19964;-81
2021/12/06 07:39:00;;;;;;;;;;;;;;;1.49;89.84;96195.50;4984119;28;20450;-81
2021/12/06 07:41:28;;;;;;;;;;;;;;;1.49;90.15;96194.69;4991186;28;19965;-81
2021/12/06 07:43:55;;;;;;;;;;;;;;;1.49;90.18;96200.69;4951732;28;20335;-81
2021/12/06 07:46:21;;;;;;;;;;;;;;;1.50;90.56;96204.88;5001879;28;19970;-80
2021/12/06 07:48:52;;;;;;;;;;;;;;;1.51;90.39;96208.25;4988720;28;19959;-80
2021/12/06 07:51:19;;;;;;;;;;;;;;;1.53;90.47;96212.28;5005726;28;19963;-80
2021/12/06 07:53:47;;;;;;;;;;;;;;;1.56;90.35;96209.38;4999231;28;19958;-80
2021/12/06 07:56:13;;;;;;;;;;;;;;;1.58;90.43;96211.78;4966552;28;19966;-80
2021/12/06 07:58:39;;;;;;;;;;;;;;;1.61;90.65;96203.69;4988624;28;19968;-80
2021/12/06 08:01:06;;;;;;;;;;;;;;;1.62;90.66;96208.69;5001003;28;20310;-80
2021/12/06 08:03:32;;;;;;;;;;;;;;;1.65;90.52;96214.50;4996801;28;20435;-80
2021/12/06 08:05:59;;;;;;;;;;;;;;;1.66;90.44;96208.34;4981981;28;19951;-80
2021/12/06 08:08:27;;;;;;;;;;;;;;;1.67;90.77;96215.94;5031986;28;19959;-80
2021/12/06 08:10:56;;;;;;;;;;;;;;;1.69;90.75;96223.53;5002877;28;20034;-80
2021/12/06 08:13:23;;;;;;;;;;;;;;;1.70;90.63;96227.72;5007065;28;20384;-80
2021/12/06 08:15:50;;;;;;;;;;;;;;;1.72;90.80;96229.19;4987938;28;19960;-80
2021/12/06 08:18:16;;;;;;;;;;;;;;;1.74;90.60;96237.59;5007721;28;20322;-80
2021/12/06 08:20:43;;;;;;;;;;;;;;;1.76;90.32;96227.84;4994054;28;19960;-80
2021/12/06 08:23:10;;;;;;;;;;;;;;;1.77;90.26;96226.91;4999276;28;19958;-80
2021/12/06 08:25:36;;;;;;;;;;;;;;;1.77;90.76;96231.28;5002153;28;19958;-80
2021/12/06 08:28:03;;;;;;;;;;;;;;;1.77;90.90;96246.78;4990117;28;19968;-80
2021/12/06 08:30:29;;;;;;;;;;;;;;;1.76;91.14;96235.63;4995810;28;19951;-81
2021/12/06 08:32:56;;;;;;;;;;;;;;;1.76;91.31;96238.19;5004734;28;19952;-80
2021/12/06 08:35:22;;;;;;;;;;;;;;;1.75;91.04;96251.31;4987901;28;20428;-79
2021/12/06 08:37:51;;;;;;;;;;;;;;;1.75;91.13;96246.16;5012839;28;20426;-80
2021/12/06 08:40:17;;;;;;;;;;;;;;;1.76;90.95;96251.13;5028514;28;19982;-80
2021/12/06 08:42:43;;;;;;;;;;;;;;;1.76;91.33;96245.94;4994223;28;20390;-79
2021/12/06 08:45:10;;;;;;;;;;;;;;;1.79;91.16;96258.56;5006225;28;19962;-80
2021/12/06 08:47:36;;;;;;;;;;;;;;;1.82;91.31;96258.22;4990987;28;19966;-79
2021/12/06 08:50:03;;;;;;;;;;;;;;;1.88;91.47;96259.34;5028900;28;19950;-79
2021/12/06 08:52:29;;;;;;;;;;;;;;;1.93;91.29;96264.00;5001614;28;20338;-81
2021/12/06 08:54:55;;;;;;;;;;;;;;;1.96;91.34;96259.31;5022731;28;19955;-80
2021/12/06 08:57:21;;;;;;;;;;;;;;;2.02;91.33;96263.00;5035972;28;19956;-80
2021/12/06 08:59:47;;;;;;;;;;;;;;;2.05;90.61;96270.41;5005767;28;19976;-80
2021/12/06 09:02:14;;;;;;;;;;;;;;;2.05;90.96;96270.41;5011765;28;19976;-80
2021/12/06 09:04:40;;;;;;;;;;;;;;;2.08;90.82;96266.69;5028386;28;19975;-80
2021/12/06 09:07:11;;;;;;;;;;;;;;;2.08;90.80;96277.84;5013004;28;20457;-79
2021/12/06 09:09:45;;;;;;;;;;;;;;;2.06;90.42;96274.63;5000003;28;19959;-80
2021/12/06 09:12:12;;;;;;;;;;;;;;;2.06;90.60;96269.44;5014583;28;19959;-79
2021/12/06 09:14:39;;;;;;;;;;;;;;;2.06;90.30;96279.81;4994445;28;19964;-79
2021/12/06 09:17:05;;;;;;;;;;;;;;;2.05;90.18;96277.38;4992730;28;20423;-80
2021/12/06 09:19:31;;;;;;;;;;;;;;;2.04;90.50;96281.75;4990837;28;19968;-80
2021/12/06 09:21:57;;;;;;;;;;;;;;;2.05;90.71;96275.59;4992431;28;19955;-79
2021/12/06 09:24:23;;;;;;;;;;;;;;;2.07;90.72;96273.63;5011807;28;19966;-79
2021/12/06 09:26:49;;;;;;;;;;;;;;;2.09;90.25;96276.88;4994711;28;19967;-79
2021/12/06 09:29:15;;;;;;;;;;;;;;;2.11;90.55;96274.13;5019434;28;20002;-79
2021/12/06 09:31:42;;;;;;;;;;;;;;;2.13;90.38;96285.09;5023072;28;19951;-79
2021/12/06 09:34:08;;;;;;;;;;;;;;;2.16;90.50;96284.75;5017749;28;19960;-79
2021/12/06 09:36:35;;;;;;;;;;;;;;;2.20;90.44;96292.00;5018145;28;19952;-79
2021/12/06 09:39:02;;;;;;;;;;;;;;;2.23;89.93;96285.69;5004667;28;19977;-79
2021/12/06 09:41:29;;;;;;;;;;;;;;;2.23;89.87;96283.91;5007683;28;19984;-79
2021/12/06 09:43:57;;;;;;;;;;;;;;;2.24;90.03;96290.69;5009148;28;19953;-79
2021/12/06 09:46:23;;;;;;;;;;;;;;;2.24;89.80;96298.44;4997090;28;20036;-79
2021/12/06 09:48:49;;;;;;;;;;;;;;;2.24;90.35;96298.44;5023570;28;19965;-79
2021/12/06 09:51:21;;;;;;;;;;;;;;;2.27;90.23;96299.09;5008086;28;20000;-79
2021/12/06 09:53:48;;;;;;;;;;;;;;;2.30;90.44;96302.16;5024947;28;19961;-79
2021/12/06 09:56:16;;;;;;;;;;;;;;;2.34;90.37;96295.66;5006756;28;19952;-79
2021/12/06 09:58:43;;;;;;;;;;;;;;;2.36;90.21;96296.31;5002657;28;19951;-80
2021/12/06 10:01:12;;;;;;;;;;;;;;;2.38;89.50;96302.13;5025067;28;19948;-79
2021/12/06 10:03:39;;;;;;;;;;;;;;;2.41;89.54;96295.78;5026554;28;20416;-79
2021/12/06 10:06:08;;;;;;;;;;;;;;;2.45;89.28;96302.22;5011162;28;19961;-79
2021/12/06 10:08:36;;;;;;;;;;;;;;;2.49;89.13;96294.94;5021830;28;20291;-79
2021/12/06 10:11:02;;;;;;;;;;;;;;;2.53;89.05;96298.81;5007152;28;19960;-79
2021/12/06 10:13:28;;;;;;;;;;;;;;;2.55;88.79;96294.25;5010719;28;19955;-79
2021/12/06 10:15:54;;;;;;;;;;;;;;;2.57;87.90;96289.72;5024662;28;19959;-81
2021/12/06 10:18:20;;;;;;;;;;;;;;;2.60;87.96;96297.13;5006227;28;20322;-79
2021/12/06 10:20:50;;;;;;;;;;;;;;;2.63;87.89;96296.81;5006811;28;19978;-80
2021/12/06 10:23:16;;;;;;;;;;;;;;;2.67;86.66;96292.91;5010203;28;19958;-79
2021/12/06 10:25:45;;;;;;;;;;;;;;;2.70;86.33;96294.34;5026914;28;19965;-79
2021/12/06 10:28:12;;;;;;;;;;;;;;;2.72;86.98;96282.81;5029992;28;19959;-80
2021/12/06 10:30:49;;;;;;;;;;;;;;;2.80;94.60;96277.59;5026023;28;19969;-80
2021/12/06 10:33:18;;;;;;;;;;;;;;;3.17;96.09;96278.59;5027487;28;19955;-80
2021/12/06 10:35:46;;;;;;;;;;;;;;;3.32;89.71;96276.03;5024838;28;20404;-79
2021/12/06 10:38:17;;;;;;;;;;;;;;;3.38;87.83;96274.50;5030358;28;19956;-79
2021/12/06 10:40:43;;;;;;;;;;;;;;;3.43;87.25;96273.00;5009672;28;20061;-79
2021/12/06 10:43:11;;;;;;;;;;;;;;;3.45;86.43;96275.44;5027896;28;19953;-79
2021/12/06 10:45:44;;;;;;;;;;;;;;;3.39;84.80;96269.16;5025004;28;19960;-80
2021/12/06 10:48:18;;;;;;;;;;;;;;;3.32;85.09;96276.03;5022451;28;19953;-79
2021/12/06 10:50:50;;;;;;;;;;;;;;;3.32;84.71;96272.63;5021987;28;19960;-80
2021/12/06 10:53:18;;;;;;;;;;;;;;;3.30;83.71;96269.41;5004613;28;20329;-80
2021/12/06 10:55:45;;;;;;;;;;;;;;;3.21;83.64;96279.03;5031208;28;19954;-79
2021/12/06 10:58:16;;;;;;;;;;;;;;;3.19;84.53;96278.41;4991119;28;19960;-80
2021/12/06 11:00:45;;;;;;;;;;;;;;;3.23;84.92;96267.53;4997627;28;19997;-80
2021/12/06 11:03:23;;;;;;;;;;;;;;;3.45;85.58;96270.25;5026360;28;19953;-79
2021/12/06 11:05:55;;;;;;;;;;;;;;;3.50;82.93;96262.72;5027550;28;20424;-81
2021/12/06 11:08:22;;;;;;;;;;;;;;;3.58;84.38;96262.66;5024453;28;19974;-80
2021/12/06 11:10:54;;;;;;;;;;;;;;;3.73;83.28;96262.66;5027481;28;19969;-79
2021/12/06 11:13:46;;;;;;;;;;;;;;;3.89;82.58;96248.69;5027605;28;19979;-80
2021/12/06 11:16:15;;;;;;;;;;;;;;;4.07;82.34;96254.31;4997644;28;19950;-81
2021/12/06 11:18:46;;;;;;;;;;;;;;;4.09;82.29;96254.13;5024391;28;19963;-80
2021/12/06 11:21:15;;;;;;;;;;;;;;;4.02;81.31;96243.66;5028329;28;19967;-80
2021/12/06 11:23:59;;;;;;;;;;;;;;;3.79;81.70;96243.78;5023899;28;19961;-79
2021/12/06 11:26:25;;;;;;;;;;;;;;;3.64;82.28;96250.75;5023109;28;19961;-79
2021/12/06 11:28:51;;;;;;;;;;;;;;;3.54;82.11;96245.03;5030266;28;19959;-80
2021/12/06 11:31:17;;;;;;;;;;;;;;;3.42;80.94;96237.72;5022341;28;19950;-79
2021/12/06 11:33:55;;;;;;;;;;;;;;;3.41;81.87;96243.06;5024891;28;19958;-80
2021/12/06 11:36:30;;;;;;;;;;;;;;;3.58;88.71;96238.50;5005995;28;19952;-83
2021/12/06 11:38:57;;;;;;;;;;;;;;;3.81;83.06;96241.81;5023640;28;20417;-83
2021/12/06 11:41:23;;;;;;;;;;;;;;;3.91;81.54;96246.72;5004510;28;20327;-83
2021/12/06 11:43:49;;;;;;;;;;;;;;;4.06;82.19;96237.13;5011393;28;19975;-82
2021/12/06 11:46:26;;;;;;;;;;;;;;;4.26;77.99;96231.34;5007826;28;19956;-82
2021/12/06 11:48:52;;;;;;;;;;;;;;;4.23;76.16;96237.72;5011303;28;19994;-83
2021/12/06 11:51:19;;;;;;;;;;;;;;;4.25;78.43;96243.53;5021238;28;20412;-82
2021/12/06 11:53:52;;;;;;;;;;;;;;;4.20;77.91;96251.06;5007305;28;20324;-82
2021/12/06 11:56:20;;;;;;;;;;;;;;;4.22;78.80;96250.88;5006117;28;20024;-82
2021/12/06 11:58:51;;;;;;;;;;;;;;;4.38;81.47;96252.44;5007003;28;19981;-82
2021/12/06 12:01:26;;;;;;;;;;;;;;;4.56;80.32;96249.47;4990218;28;19988;-81
2021/12/06 12:03:54;;;;;;;;;;;;;;;4.77;77.30;96243.47;5026241;28;19948;-83
2021/12/06 12:06:22;;;;;;;;;;;;;;;5.09;76.09;96229.94;5031760;28;19989;-83
2021/12/06 12:08:59;;;;;;;;;;;;;;;5.30;75.47;96238.69;5020440;28;19992;-81
2021/12/06 12:11:25;;;;;;;;;;;;;;;5.25;74.79;96235.84;5029115;28;19950;-81
2021/12/06 12:13:53;;;;;;;;;;;;;;;5.13;74.35;96232.97;5024100;28;20012;-81
2021/12/06 12:16:21;;;;;;;;;;;;;;;4.89;73.77;96223.75;5009281;28;19976;-81
2021/12/06 12:18:47;;;;;;;;;;;;;;;4.92;75.94;96233.00;5009510;28;20331;-81
2021/12/06 12:21:14;;;;;;;;;;;;;;;5.07;77.84;96234.50;5029339;28;19974;-81
2021/12/06 12:23:42;;;;;;;;;;;;;;;5.19;74.83;96228.81;5029611;28;20423;-81
2021/12/06 12:26:14;;;;;;;;;;;;;;;5.09;74.57;96231.72;5003643;28;19954;-81
2021/12/06 12:28:52;;;;;;;;;;;;;;;5.03;74.04;96229.88;5014600;28;19967;-81
2021/12/06 12:31:19;;;;;;;;;;;;;;;4.99;74.89;96211.25;5011240;28;19961;-81
2021/12/06 12:33:48;;;;;;;;;;;;;;;5.03;73.19;96209.09;5024333;28;19964;-81
2021/12/06 12:36:18;;;;;;;;;;;;;;;4.99;73.42;96213.84;5030188;28;20336;-82
2021/12/06 12:38:46;;;;;;;;;;;;;;;4.90;70.23;96178.63;5017725;28;20336;-81
2021/12/06 12:41:14;;;;;;;;;;;;;;;4.99;80.63;96200.06;5032809;28;19980;-82
2021/12/06 12:43:51;;;;;;;;;;;;;;;5.40;76.00;96194.94;5009732;28;19954;-81
2021/12/06 12:46:37;;;;;;;;;;;;;;;5.51;72.28;96185.81;5025977;28;19962;-81
2021/12/06 12:49:07;;;;;;;;;;;;;;;5.56;72.56;96199.00;5007222;28;19950;-81
2021/12/06 12:51:35;;;;;;;;;;;;;;;5.56;68.82;96183.41;5028028;28;19962;-82
2021/12/06 12:54:31;;;;;;;;;;;;;;;5.48;71.14;96193.97;5012420;28;19971;-82
2021/12/06 12:56:59;;;;;;;;;;;;;;;5.26;70.63;96196.66;4997506;28;19957;-82
2021/12/06 12:59:27;;;;;;;;;;;;;;;5.08;70.95;96204.13;5019661;28;19966;-82
2021/12/06 13:02:11;;;;;;;;;;;;;;;4.91;72.17;96206.19;5011836;28;20424;-82
2021/12/06 13:05:10;;;;;;;;;;;;;;;4.75;71.29;96209.06;5029474;28;19960;-82
2021/12/06 13:11:17;;;;;;;;;;;;;;;4.65;73.17;96222.38;5092521;23;19987;-75
2021/12/06 13:13:49;;;;;;;;;;;;;;;4.68;74.43;96215.00;5016742;28;19970;-76
2021/12/06 13:16:55;;;;;;;;;;;;;;;4.75;73.09;96203.88;5015571;28;19965;-76
2021/12/06 13:19:22;;;;;;;;;;;;;;;4.79;70.30;96192.13;5001408;28;19954;-76